createdAt,value
2024-05-09T00:00:40.672Z,10.8582
2024-05-09T00:01:47.944Z,10.8506
2024-05-09T00:02:54.199Z,10.8474
2024-05-09T00:04:02.456Z,10.8458
2024-05-09T00:05:09.421Z,10.8455
2024-05-09T00:06:15.546Z,10.8464
2024-05-09T00:07:21.709Z,10.8477
2024-05-09T00:08:28.884Z,10.8451
2024-05-09T00:09:35.216Z,10.8429
2024-05-09T00:10:41.673Z,10.8388
2024-05-09T00:11:48.011Z,10.8343
2024-05-09T00:12:54.293Z,10.8305
2024-05-09T00:14:00.907Z,10.8276
2024-05-09T00:15:07.253Z,10.8238
2024-05-09T00:16:13.339Z,10.8187
2024-05-09T00:17:19.578Z,10.8139
2024-05-09T00:18:25.873Z,10.8098
2024-05-09T00:19:32.265Z,10.8069
2024-05-09T00:20:40.841Z,10.8047
2024-05-09T00:21:50.448Z,10.8012
2024-05-09T00:22:57.232Z,10.7980
2024-05-09T00:24:03.221Z,10.7964
2024-05-09T00:25:09.710Z,10.7910
2024-05-09T00:26:15.837Z,10.7846
2024-05-09T00:27:22.047Z,10.7767
2024-05-09T00:28:28.814Z,10.7671
2024-05-09T00:29:35.041Z,10.7582
2024-05-09T00:30:41.273Z,10.7509
2024-05-09T00:32:03.187Z,10.7439
2024-05-09T00:33:10.780Z,10.7346
2024-05-09T00:34:18.859Z,10.7244
2024-05-09T00:35:25.936Z,10.7136
2024-05-09T00:36:32.661Z,10.7025
2024-05-09T00:38:05.047Z,10.6916
2024-05-09T00:39:12.180Z,10.6795
2024-05-09T00:40:27.086Z,10.6636
2024-05-09T00:41:31.763Z,10.6525
2024-05-09T00:42:38.613Z,10.6397
2024-05-09T00:43:45.535Z,10.6270
2024-05-09T00:44:57.188Z,10.6168
2024-05-09T00:46:05.409Z,10.6073
2024-05-09T00:47:15.474Z,10.5980
2024-05-09T00:48:22.763Z,10.5891
2024-05-09T00:49:31.556Z,10.5821
2024-05-09T00:50:38.810Z,10.5760
2024-05-09T00:51:49.414Z,10.5722
2024-05-09T00:52:56.623Z,10.5690
2024-05-09T00:54:17.906Z,10.5668
2024-05-09T00:55:25.517Z,10.5694
2024-05-09T00:56:38.508Z,10.5709
2024-05-09T00:57:45.591Z,10.5732
2024-05-09T00:58:52.210Z,10.5770
2024-05-09T01:00:09.899Z,10.5811
2024-05-09T01:01:19.610Z,10.5862
2024-05-09T01:02:41.205Z,10.5891
2024-05-09T01:03:55.081Z,10.5942
2024-05-09T01:05:02.020Z,10.6002
2024-05-09T01:06:09.603Z,10.6063
2024-05-09T01:07:17.720Z,10.6139
2024-05-09T01:08:25.548Z,10.6219
2024-05-09T01:09:35.692Z,10.6318
2024-05-09T01:10:45.189Z,10.6461
2024-05-09T01:11:55.690Z,10.6588
2024-05-09T01:13:05.106Z,10.6744
2024-05-09T01:14:13.670Z,10.6897
2024-05-09T01:15:36.728Z,10.7037
2024-05-09T01:16:44.728Z,10.7216
2024-05-09T01:18:06.646Z,10.7385
2024-05-09T01:20:41.677Z,10.7799
2024-05-09T01:21:49.958Z,10.8002
2024-05-09T01:23:00.022Z,10.8194
2024-05-09T01:24:10.414Z,10.8362
2024-05-09T01:25:24.028Z,10.8531
2024-05-09T01:26:32.195Z,10.8678
2024-05-09T01:27:41.202Z,10.8827
2024-05-09T01:28:49.185Z,10.8955
2024-05-09T01:32:19.649Z,10.9165
2024-05-09T01:32:19.649Z,10.9053
2024-05-09T01:33:26.567Z,10.9289
2024-05-09T01:34:36.052Z,10.9369
2024-05-09T01:35:43.636Z,10.9451
2024-05-09T01:39:11.727Z,10.9518
2024-05-09T01:39:11.727Z,10.9595
2024-05-09T01:43:27.820Z,10.9694
2024-05-09T01:43:27.820Z,10.9792
2024-05-09T01:44:42.551Z,10.9897
2024-05-09T01:45:50.686Z,11.0009
2024-05-09T01:47:28.193Z,11.0079
2024-05-09T01:51:20.006Z,11.0136
2024-05-09T01:51:20.006Z,11.0200
2024-05-09T01:52:29.705Z,11.0273
2024-05-09T01:53:40.593Z,11.0324
2024-05-09T01:55:40.583Z,11.0359
2024-05-09T02:04:39.678Z,11.0407
2024-05-09T02:04:39.678Z,11.0455
2024-05-09T02:06:25.931Z,11.0620
2024-05-09T02:07:31.911Z,11.0681
2024-05-09T02:08:50.123Z,11.0729
2024-05-09T02:10:00.264Z,11.0799
2024-05-09T02:11:06.976Z,11.0840
2024-05-09T02:12:13.689Z,11.0885
2024-05-09T02:13:25.341Z,11.0913
2024-05-09T02:14:38.766Z,11.0958
2024-05-09T02:19:34.471Z,11.1162
2024-05-09T02:20:41.943Z,11.1229
2024-05-09T02:21:58.592Z,11.1286
2024-05-09T02:23:21.720Z,11.1324
2024-05-09T02:25:48.593Z,11.1381
2024-05-09T02:26:55.613Z,11.1404
2024-05-09T02:28:26.754Z,11.1407
2024-05-09T02:29:41.757Z,11.1410
2024-05-09T02:31:16.720Z,11.1404
2024-05-09T02:32:26.993Z,11.1397
2024-05-09T02:33:56.973Z,11.1407
2024-05-09T02:35:04.602Z,11.1410
2024-05-09T02:43:25.973Z,11.1404
2024-05-09T02:43:25.973Z,11.1391
2024-05-09T02:44:42.754Z,11.1381
2024-05-09T02:48:21.934Z,11.1362
2024-05-09T02:48:21.934Z,11.1375
2024-05-09T02:49:37.807Z,11.1353
2024-05-09T02:52:22.792Z,11.1327
2024-05-09T02:53:42.771Z,11.1315
2024-05-09T02:54:57.628Z,11.1295
2024-05-09T02:56:10.823Z,11.1260
2024-05-09T02:57:52.771Z,11.1241
2024-05-09T03:03:50.460Z,11.1225
2024-05-09T03:03:50.460Z,11.1181
2024-05-09T03:05:02.837Z,11.1098
2024-05-09T03:08:38.977Z,11.1072
2024-05-09T03:08:38.977Z,11.1050
2024-05-09T03:09:59.099Z,11.1018
2024-05-09T03:13:23.131Z,11.1006
2024-05-09T03:13:23.131Z,11.0996
2024-05-09T03:19:44.481Z,11.0983
2024-05-09T03:19:44.481Z,11.0961
2024-05-09T03:21:07.366Z,11.0904
2024-05-09T03:23:05.799Z,11.0875
2024-05-09T03:26:39.721Z,11.0850
2024-05-09T03:26:39.721Z,11.0843
2024-05-09T03:28:10.271Z,11.0824
2024-05-09T03:30:15.452Z,11.0818
2024-05-09T03:31:26.275Z,11.0821
2024-05-09T03:32:59.316Z,11.0846
2024-05-09T03:37:38.079Z,11.0907
2024-05-09T03:37:38.079Z,11.0875
2024-05-09T03:41:30.498Z,11.0948
2024-05-09T03:41:30.498Z,11.0939
2024-05-09T03:52:51.967Z,11.0967
2024-05-09T03:52:51.967Z,11.0986
2024-05-09T03:54:24.210Z,11.1088
2024-05-09T03:55:45.915Z,11.1101
2024-05-09T03:58:04.904Z,11.1139
2024-05-09T03:59:32.839Z,11.1168
2024-05-09T04:01:14.384Z,11.1219
2024-05-09T04:02:20.909Z,11.1286
2024-05-09T04:03:27.364Z,11.1337
2024-05-09T04:04:33.886Z,11.1391
2024-05-09T04:05:41.078Z,11.1445
2024-05-09T04:06:49.374Z,11.1467
2024-05-09T04:07:56.403Z,11.1509
2024-05-09T04:09:02.438Z,11.1550
2024-05-09T04:10:11.278Z,11.1598
2024-05-09T04:11:20.946Z,11.1643
2024-05-09T04:12:27.938Z,11.1668
2024-05-09T04:13:34.123Z,11.1690
2024-05-09T04:14:40.280Z,11.1722
2024-05-09T04:15:46.409Z,11.1748
2024-05-09T04:16:52.517Z,11.1779
2024-05-09T04:17:58.847Z,11.1805
2024-05-09T04:19:05.053Z,11.1811
2024-05-09T04:20:21.059Z,11.1821
2024-05-09T04:21:23.134Z,11.1818
2024-05-09T04:22:29.082Z,11.1834
2024-05-09T04:23:35.875Z,11.1850
2024-05-09T04:24:43.118Z,11.1850
2024-05-09T04:25:50.052Z,11.1856
2024-05-09T04:27:11.069Z,11.1840
2024-05-09T04:28:17.109Z,11.1811
2024-05-09T04:29:23.354Z,11.1811
2024-05-09T04:30:36.758Z,11.1815
2024-05-09T04:31:41.448Z,11.1827
2024-05-09T04:32:47.740Z,11.1837
2024-05-09T04:33:53.956Z,11.1865
2024-05-09T04:35:00.240Z,11.1888
2024-05-09T04:36:06.438Z,11.1926
2024-05-09T04:37:13.357Z,11.1983
2024-05-09T04:38:20.449Z,11.2022
2024-05-09T04:39:26.639Z,11.2076
2024-05-09T04:40:36.071Z,11.2143
2024-05-09T04:41:43.700Z,11.2197
2024-05-09T04:42:50.399Z,11.2244
2024-05-09T04:43:56.629Z,11.2324
2024-05-09T04:45:02.776Z,11.2404
2024-05-09T04:46:08.821Z,11.2480
2024-05-09T04:47:15.876Z,11.2550
2024-05-09T04:48:22.220Z,11.2636
2024-05-09T04:49:28.612Z,11.2722
2024-05-09T04:50:38.190Z,11.2795
2024-05-09T04:51:47.441Z,11.2869
2024-05-09T04:52:53.568Z,11.2929
2024-05-09T04:53:59.765Z,11.2996
2024-05-09T04:55:05.938Z,11.3076
2024-05-09T04:56:12.127Z,11.3158
2024-05-09T04:57:18.203Z,11.3238
2024-05-09T04:58:24.476Z,11.3324
2024-05-09T04:59:30.599Z,11.3391
2024-05-09T05:00:38.302Z,11.3448
2024-05-09T05:01:45.806Z,11.3537
2024-05-09T05:02:52.195Z,11.3630
2024-05-09T05:03:58.646Z,11.3709
2024-05-09T05:05:05.040Z,11.3802
2024-05-09T05:06:13.884Z,11.3904
2024-05-09T05:07:20.042Z,11.4006
2024-05-09T05:08:26.130Z,11.4101
2024-05-09T05:09:32.338Z,11.4232
2024-05-09T05:10:38.492Z,11.4346
2024-05-09T05:11:44.654Z,11.4432
2024-05-09T05:12:51.436Z,11.4483
2024-05-09T05:13:57.527Z,11.4560
2024-05-09T05:15:03.774Z,11.4649
2024-05-09T05:16:10.174Z,11.4713
2024-05-09T05:17:16.804Z,11.4779
2024-05-09T05:18:24.051Z,11.4850
2024-05-09T05:19:31.254Z,11.4929
2024-05-09T05:20:37.954Z,11.5018
2024-05-09T05:21:44.061Z,11.5114
2024-05-09T05:22:51.034Z,11.5213
2024-05-09T05:23:57.125Z,11.5318
2024-05-09T05:25:03.110Z,11.5442
2024-05-09T05:26:09.172Z,11.5588
2024-05-09T05:27:15.355Z,11.5732
2024-05-09T05:28:21.532Z,11.5869
2024-05-09T05:29:27.853Z,11.5986
2024-05-09T05:30:35.015Z,11.6101
2024-05-09T05:31:41.622Z,11.6200
2024-05-09T05:32:47.908Z,11.6283
2024-05-09T05:33:54.183Z,11.6356
2024-05-09T05:35:00.341Z,11.6445
2024-05-09T05:36:06.488Z,11.6522
2024-05-09T05:37:12.568Z,11.6588
2024-05-09T05:38:19.159Z,11.6649
2024-05-09T05:39:28.827Z,11.6719
2024-05-09T05:40:37.562Z,11.6811
2024-05-09T05:41:45.093Z,11.6897
2024-05-09T05:42:51.174Z,11.7028
2024-05-09T05:43:57.331Z,11.7165
2024-05-09T05:45:05.089Z,11.7318
2024-05-09T05:46:12.866Z,11.7496
2024-05-09T05:47:22.108Z,11.7655
2024-05-09T05:48:31.012Z,11.7830
2024-05-09T05:49:37.894Z,11.8006
2024-05-09T05:50:46.006Z,11.8149
2024-05-09T05:51:52.391Z,11.8264
2024-05-09T05:52:58.676Z,11.8362
2024-05-09T05:54:04.887Z,11.8426
2024-05-09T05:55:11.034Z,11.8461
2024-05-09T05:56:17.215Z,11.8480
2024-05-09T05:57:23.348Z,11.8522
2024-05-09T05:58:29.495Z,11.8566
2024-05-09T05:59:36.442Z,11.8636
2024-05-09T06:00:43.423Z,11.8703
2024-05-09T06:01:49.608Z,11.8773
2024-05-09T06:02:55.839Z,11.8840
2024-05-09T06:04:01.918Z,11.8913
2024-05-09T06:05:08.218Z,11.8967
2024-05-09T06:06:14.479Z,11.9015
2024-05-09T06:07:21.433Z,11.9066
2024-05-09T06:08:30.144Z,11.9143
2024-05-09T06:09:36.958Z,11.9222
2024-05-09T06:10:43.122Z,11.9327
2024-05-09T06:11:49.472Z,11.9467
2024-05-09T06:12:55.555Z,11.9633
2024-05-09T06:14:01.673Z,11.9802
2024-05-09T06:15:07.704Z,11.9993
2024-05-09T06:16:13.811Z,12.0197
2024-05-09T06:17:20.038Z,12.0356
2024-05-09T06:18:26.649Z,12.0560
2024-05-09T06:19:33.205Z,12.0792
2024-05-09T06:20:39.978Z,12.1041
2024-05-09T06:21:48.451Z,12.1295
2024-05-09T06:22:55.183Z,12.1566
2024-05-09T06:24:10.576Z,12.1894
2024-05-09T06:25:39.344Z,12.2229
2024-05-09T06:26:46.042Z,12.2592
2024-05-09T06:27:52.137Z,12.2996
2024-05-09T06:28:58.334Z,12.3375
2024-05-09T06:30:05.201Z,12.3780
2024-05-09T06:31:11.483Z,12.4203
2024-05-09T06:32:18.108Z,12.4649
2024-05-09T06:33:24.610Z,12.5117
2024-05-09T06:34:30.902Z,12.5627
2024-05-09T06:35:40.203Z,12.6149
2024-05-09T06:36:46.600Z,12.6668
2024-05-09T06:37:52.828Z,12.7197
2024-05-09T06:38:58.962Z,12.7703
2024-05-09T06:40:10.069Z,12.8213
2024-05-09T06:41:17.069Z,12.8748
2024-05-09T06:42:23.682Z,12.9299
2024-05-09T06:43:29.894Z,12.9818
2024-05-09T06:44:36.093Z,13.0283
2024-05-09T06:45:42.391Z,13.0710
2024-05-09T06:46:48.563Z,13.1101
2024-05-09T06:48:01.605Z,13.1468
2024-05-09T06:49:09.309Z,13.1811
2024-05-09T06:50:23.912Z,13.2197
2024-05-09T06:51:33.567Z,13.2627
2024-05-09T06:52:43.235Z,13.3117
2024-05-09T06:53:49.636Z,13.3694
2024-05-09T06:54:57.058Z,13.4318
2024-05-09T06:56:26.259Z,13.4866
2024-05-09T06:58:05.378Z,13.5302
2024-05-09T06:59:11.913Z,13.5659
2024-05-09T07:00:26.801Z,13.5920
2024-05-09T07:01:31.063Z,13.6111
2024-05-09T07:02:37.723Z,13.6251
2024-05-09T07:03:45.268Z,13.6356
2024-05-09T07:04:54.763Z,13.6455
2024-05-09T07:06:04.483Z,13.6535
2024-05-09T07:09:06.093Z,13.6611
2024-05-09T07:09:06.093Z,13.6668
2024-05-09T07:10:18.063Z,13.6697
2024-05-09T07:11:31.593Z,13.6729
2024-05-09T07:12:40.747Z,13.6722
2024-05-09T07:13:49.513Z,13.6700
2024-05-09T07:14:55.701Z,13.6620
2024-05-09T07:16:04.759Z,13.6515
2024-05-09T07:17:11.504Z,13.6423
2024-05-09T07:18:19.916Z,13.6312
2024-05-09T07:19:27.034Z,13.6238
2024-05-09T07:20:34.977Z,13.6181
2024-05-09T07:21:45.069Z,13.6101
2024-05-09T07:22:53.933Z,13.6015
2024-05-09T07:24:03.294Z,13.5945
2024-05-09T07:25:10.783Z,13.5945
2024-05-09T07:26:18.818Z,13.6015
2024-05-09T07:27:26.685Z,13.6152
2024-05-09T07:28:33.203Z,13.6315
2024-05-09T07:29:40.089Z,13.6531
2024-05-09T07:30:47.524Z,13.6853
2024-05-09T07:31:53.684Z,13.7254
2024-05-09T07:33:00.720Z,13.7697
2024-05-09T07:34:07.389Z,13.8165
2024-05-09T07:35:15.816Z,13.8646
2024-05-09T07:36:22.546Z,13.9114
2024-05-09T07:37:29.390Z,13.9563
2024-05-09T07:38:36.669Z,14.0025
2024-05-09T07:39:43.364Z,14.0493
2024-05-09T07:40:49.748Z,14.0885
2024-05-09T07:41:56.584Z,14.1207
2024-05-09T07:43:03.104Z,14.1442
2024-05-09T07:44:09.377Z,14.1637
2024-05-09T07:45:38.960Z,14.1783
2024-05-09T07:47:36.441Z,14.1939
2024-05-09T07:49:11.994Z,14.2149
2024-05-09T07:50:35.274Z,14.2366
2024-05-09T07:52:22.652Z,14.2547
2024-05-09T07:53:32.469Z,14.2799
2024-05-09T07:53:44.763Z,14.2920
2024-05-09T07:54:53.218Z,14.3035
2024-05-09T07:55:59.645Z,14.3102
2024-05-09T07:57:05.957Z,14.3153
2024-05-09T07:58:12.166Z,14.3121
2024-05-09T07:59:18.448Z,14.3079
2024-05-09T08:00:30.850Z,14.3082
2024-05-09T08:01:38.107Z,14.3137
2024-05-09T08:02:45.936Z,14.3219
2024-05-09T08:03:52.712Z,14.3350
2024-05-09T08:04:59.712Z,14.3509
2024-05-09T08:06:05.952Z,14.3665
2024-05-09T08:07:12.283Z,14.3777
2024-05-09T08:08:18.547Z,14.3888
2024-05-09T08:09:24.942Z,14.4047
2024-05-09T08:10:31.136Z,14.4286
2024-05-09T08:11:37.791Z,14.4576
2024-05-09T08:12:44.208Z,14.4834
2024-05-09T08:13:50.473Z,14.5044
2024-05-09T08:14:56.911Z,14.5226
2024-05-09T08:16:03.613Z,14.5423
2024-05-09T08:17:10.643Z,14.5678
2024-05-09T08:18:17.300Z,14.5917
2024-05-09T08:19:24.557Z,14.6118
2024-05-09T08:20:33.909Z,14.6296
2024-05-09T08:21:43.308Z,14.6506
2024-05-09T08:22:49.738Z,14.6755
2024-05-09T08:23:56.083Z,14.6984
2024-05-09T08:25:02.479Z,14.7191
2024-05-09T08:26:08.748Z,14.7363
2024-05-09T08:27:15.065Z,14.7484
2024-05-09T08:28:21.349Z,14.7548
2024-05-09T08:29:27.630Z,14.7519
2024-05-09T08:30:37.174Z,14.7417
2024-05-09T08:31:44.928Z,14.7286
2024-05-09T08:32:51.162Z,14.7149
2024-05-09T08:33:57.683Z,14.6984
2024-05-09T08:35:04.223Z,14.6895
2024-05-09T08:36:25.078Z,14.6895
2024-05-09T08:37:36.632Z,14.6895
2024-05-09T08:38:43.431Z,14.6914
2024-05-09T08:39:49.768Z,14.6882
2024-05-09T08:40:55.963Z,14.6844
2024-05-09T08:42:02.110Z,14.6805
2024-05-09T08:43:08.606Z,14.6821
2024-05-09T08:44:15.382Z,14.6907
2024-05-09T08:45:21.452Z,14.7035
2024-05-09T08:46:27.690Z,14.7178
2024-05-09T08:47:34.144Z,14.7401
2024-05-09T08:48:40.642Z,14.7716
2024-05-09T08:49:47.677Z,14.8162
2024-05-09T08:50:54.021Z,14.8704
2024-05-09T08:52:00.262Z,14.9286
2024-05-09T08:53:06.599Z,14.9895
2024-05-09T08:54:12.601Z,15.0516
2024-05-09T08:55:18.836Z,15.1172
2024-05-09T08:56:26.087Z,15.1812
2024-05-09T08:57:32.434Z,15.2474
2024-05-09T08:58:38.510Z,15.3134
2024-05-09T08:59:44.624Z,15.3764
2024-05-09T09:00:50.961Z,15.4373
2024-05-09T09:01:57.687Z,15.4949
2024-05-09T09:03:03.946Z,15.5446
2024-05-09T09:04:10.444Z,15.5895
2024-05-09T09:05:16.998Z,15.6303
2024-05-09T09:06:23.285Z,15.6650
2024-05-09T09:07:29.915Z,15.6933
2024-05-09T09:08:36.061Z,15.7147
2024-05-09T09:09:42.269Z,15.7271
2024-05-09T09:10:48.555Z,15.7252
2024-05-09T09:11:54.782Z,15.7153
2024-05-09T09:13:00.988Z,15.6991
2024-05-09T09:14:07.147Z,15.6774
2024-05-09T09:15:13.553Z,15.6522
2024-05-09T09:16:22.709Z,15.6233
2024-05-09T09:17:29.270Z,15.5933
2024-05-09T09:18:35.589Z,15.5637
2024-05-09T09:19:41.916Z,15.5392
2024-05-09T09:20:48.956Z,15.5220
2024-05-09T09:21:56.022Z,15.5143
2024-05-09T09:23:02.585Z,15.5163
2024-05-09T09:24:09.973Z,15.5287
2024-05-09T09:25:16.373Z,15.5481
2024-05-09T09:26:22.735Z,15.5704
2024-05-09T09:27:29.195Z,15.5933
2024-05-09T09:28:35.284Z,15.6169
2024-05-09T09:29:41.518Z,15.6465
2024-05-09T09:30:47.876Z,15.6876
2024-05-09T09:31:56.702Z,15.7446
2024-05-09T09:33:03.353Z,15.8204
2024-05-09T09:34:09.894Z,15.9096
2024-05-09T09:35:16.147Z,16.0019
2024-05-09T09:36:22.558Z,16.0921
2024-05-09T09:37:29.121Z,16.1762
2024-05-09T09:38:35.831Z,16.2516
2024-05-09T09:39:42.098Z,16.3134
2024-05-09T09:40:50.097Z,16.3622
2024-05-09T09:41:56.565Z,16.4013
2024-05-09T09:43:02.817Z,16.4329
2024-05-09T09:44:09.516Z,16.4558
2024-05-09T09:45:15.643Z,16.4803
2024-05-09T09:46:21.813Z,16.5102
2024-05-09T09:47:28.048Z,16.5466
2024-05-09T09:48:34.685Z,16.5915
2024-05-09T09:49:41.464Z,16.6462
2024-05-09T09:50:48.030Z,16.7017
2024-05-09T09:51:54.478Z,16.7548
2024-05-09T09:53:00.828Z,16.8074
2024-05-09T09:54:07.179Z,16.8568
2024-05-09T09:55:14.193Z,16.9014
2024-05-09T09:56:20.351Z,16.9412
2024-05-09T09:57:26.760Z,16.9845
2024-05-09T09:58:32.846Z,17.0453
2024-05-09T09:59:38.887Z,17.1243
2024-05-09T10:00:46.307Z,17.2160
2024-05-09T10:01:52.888Z,17.3106
2024-05-09T10:02:59.562Z,17.4020
2024-05-09T10:04:07.416Z,17.4957
2024-05-09T10:05:13.952Z,17.5864
2024-05-09T10:06:20.420Z,17.6743
2024-05-09T10:07:26.663Z,17.7606
2024-05-09T10:08:33.173Z,17.8419
2024-05-09T10:09:39.415Z,17.9103
2024-05-09T10:10:46.325Z,17.9686
2024-05-09T10:11:59.701Z,18.0205
2024-05-09T10:13:05.911Z,18.0810
2024-05-09T10:14:12.577Z,18.1521
2024-05-09T10:15:18.961Z,18.2282
2024-05-09T10:16:25.722Z,18.3072
2024-05-09T10:17:32.772Z,18.3932
2024-05-09T10:18:39.553Z,18.4792
2024-05-09T10:19:46.259Z,18.5604
2024-05-09T10:20:52.626Z,18.6336
2024-05-09T10:21:58.924Z,18.6999
2024-05-09T10:23:20.215Z,18.7649
2024-05-09T10:24:26.546Z,18.8349
2024-05-09T10:25:32.823Z,18.9104
2024-05-09T10:26:39.099Z,18.9923
2024-05-09T10:27:45.435Z,19.0792
2024-05-09T10:28:51.601Z,19.1789
2024-05-09T10:29:57.829Z,19.2888
2024-05-09T10:31:04.077Z,19.4063
2024-05-09T10:32:10.474Z,19.5238
2024-05-09T10:33:16.665Z,19.6328
2024-05-09T10:34:23.364Z,19.7309
2024-05-09T10:35:29.450Z,19.8178
2024-05-09T10:36:35.770Z,19.8955
2024-05-09T10:37:41.939Z,19.9656
2024-05-09T10:38:48.200Z,20.0255
2024-05-09T10:39:54.474Z,20.0736
2024-05-09T10:41:00.637Z,20.0971
2024-05-09T10:42:07.140Z,20.0927
2024-05-09T10:43:13.348Z,20.0646
2024-05-09T10:44:19.569Z,20.0134
2024-05-09T10:45:25.636Z,19.9423
2024-05-09T10:46:32.057Z,19.8583
2024-05-09T10:47:39.264Z,19.7719
2024-05-09T10:48:45.640Z,19.6898
2024-05-09T10:49:52.674Z,19.6194
2024-05-09T10:50:59.167Z,19.5570
2024-05-09T10:52:05.255Z,19.5009
2024-05-09T10:53:11.451Z,19.4480
2024-05-09T10:54:20.531Z,19.3910
2024-05-09T10:55:26.870Z,19.3372
2024-05-09T10:56:33.141Z,19.2916
2024-05-09T10:57:39.574Z,19.2563
2024-05-09T10:58:45.676Z,19.2305
2024-05-09T10:59:54.641Z,19.2216
2024-05-09T11:01:05.462Z,19.2385
2024-05-09T11:02:14.014Z,19.2830
2024-05-09T11:03:20.851Z,19.3480
2024-05-09T11:04:27.058Z,19.4257
2024-05-09T11:05:33.477Z,19.5136
2024-05-09T11:06:40.408Z,19.6213
2024-05-09T11:07:47.189Z,19.7611
2024-05-09T11:08:53.331Z,19.9258
2024-05-09T11:10:00.104Z,20.0984
2024-05-09T11:11:08.233Z,20.2666
2024-05-09T11:12:15.786Z,20.4217
2024-05-09T11:13:22.420Z,20.5535
2024-05-09T11:14:29.779Z,20.6628
2024-05-09T11:15:36.395Z,20.7510
2024-05-09T11:17:11.317Z,21.9674
2024-05-09T11:18:15.947Z,21.3552
2024-05-09T11:19:20.992Z,21.0721
2024-05-09T11:20:29.739Z,20.9367
2024-05-09T11:21:34.685Z,20.8577
2024-05-09T11:22:38.815Z,20.8052
2024-05-09T11:23:43.321Z,20.7848
2024-05-09T11:24:48.299Z,20.8504
2024-05-09T11:25:52.470Z,21.0472
2024-05-09T11:26:56.538Z,21.3125
2024-05-09T11:28:00.687Z,21.5572
2024-05-09T11:29:05.816Z,21.7559
2024-05-09T11:30:14.457Z,21.9097
2024-05-09T11:31:20.043Z,22.0266
2024-05-09T11:32:24.260Z,22.1133
2024-05-09T11:33:28.912Z,22.1604
2024-05-09T11:34:35.238Z,22.1674
2024-05-09T11:35:39.368Z,22.1515
2024-05-09T11:36:43.579Z,22.1190
2024-05-09T11:37:47.769Z,22.0668
2024-05-09T11:38:52.364Z,21.9887
2024-05-09T11:39:56.628Z,21.8871
2024-05-09T11:41:00.925Z,21.7664
2024-05-09T11:42:05.829Z,21.6409
2024-05-09T11:43:10.127Z,21.5221
2024-05-09T11:44:14.425Z,21.4221
2024-05-09T11:45:18.511Z,21.3466
2024-05-09T11:46:23.510Z,21.2957
2024-05-09T11:47:27.511Z,21.2609
2024-05-09T11:48:31.801Z,21.2463
2024-05-09T11:49:36.190Z,21.2358
2024-05-09T11:50:40.203Z,21.2214
2024-05-09T11:51:44.396Z,21.2017
2024-05-09T11:52:48.466Z,21.1788
2024-05-09T11:53:52.711Z,21.1527
2024-05-09T11:54:56.838Z,21.1208
2024-05-09T11:56:01.065Z,21.0714
2024-05-09T11:57:05.324Z,21.0010
2024-05-09T11:58:09.549Z,20.9131
2024-05-09T11:59:13.719Z,20.8198
2024-05-09T12:00:25.214Z,20.7243
2024-05-09T12:01:28.346Z,20.6373
2024-05-09T12:02:33.083Z,20.5609
2024-05-09T12:03:37.546Z,20.5004
2024-05-09T12:04:41.921Z,20.4551
2024-05-09T12:05:46.447Z,20.4198
2024-05-09T12:06:50.784Z,20.3972
2024-05-09T12:07:56.056Z,20.3863
2024-05-09T12:09:00.240Z,20.3914
2024-05-09T12:10:06.059Z,20.4105
2024-05-09T12:11:14.905Z,20.4558
2024-05-09T12:12:19.060Z,20.5430
2024-05-09T12:13:23.341Z,20.6577
2024-05-09T12:14:27.617Z,20.7794
2024-05-09T12:15:31.924Z,20.8975
2024-05-09T12:16:36.322Z,21.0090
2024-05-09T12:17:40.600Z,21.1224
2024-05-09T12:18:45.620Z,21.2348
2024-05-09T12:19:49.908Z,21.3412
2024-05-09T12:20:54.129Z,21.4361
2024-05-09T12:21:58.454Z,21.5097
2024-05-09T12:23:02.616Z,21.5626
2024-05-09T12:24:06.855Z,21.5992
2024-05-09T12:25:11.889Z,21.6193
2024-05-09T12:26:16.130Z,21.6275
2024-05-09T12:27:21.316Z,21.6269
2024-05-09T12:28:25.642Z,21.6240
2024-05-09T12:29:30.022Z,21.6231
2024-05-09T12:30:38.062Z,21.6253
2024-05-09T12:31:44.504Z,21.6642
2024-05-09T12:32:48.952Z,21.7674
2024-05-09T12:33:53.323Z,21.9024
2024-05-09T12:34:57.764Z,22.0508
2024-05-09T12:36:02.015Z,22.2531
2024-05-09T12:37:06.218Z,22.5197
2024-05-09T12:38:11.265Z,22.7971
2024-05-09T12:39:15.548Z,23.0669
2024-05-09T12:40:31.831Z,23.2978
2024-05-09T12:41:59.919Z,23.5128
2024-05-09T12:43:09.997Z,23.7182
2024-05-09T12:44:18.058Z,23.8794
2024-05-09T12:45:23.274Z,23.9928
2024-05-09T12:46:36.802Z,24.0632
2024-05-09T12:47:50.557Z,24.1091
2024-05-09T12:49:07.336Z,24.1517
2024-05-09T12:50:29.876Z,24.1982
2024-05-09T12:51:32.345Z,24.2371
2024-05-09T12:52:39.299Z,24.2521
2024-05-09T12:54:04.169Z,24.2272
2024-05-09T12:55:16.614Z,24.1552
2024-05-09T12:56:30.315Z,24.0460
2024-05-09T12:57:44.816Z,23.9265
2024-05-09T12:58:59.080Z,23.8122
2024-05-09T13:00:14.176Z,23.7135
2024-05-09T13:01:24.178Z,23.6338
2024-05-09T13:02:34.052Z,23.5676
2024-05-09T13:03:45.989Z,23.5061
2024-05-09T13:05:07.809Z,23.4415
2024-05-09T13:06:12.133Z,23.3720
2024-05-09T13:07:18.941Z,23.3048
2024-05-09T13:08:23.271Z,23.2414
2024-05-09T13:09:28.914Z,23.1825
2024-05-09T13:10:33.768Z,23.1290
2024-05-09T13:11:38.514Z,23.0850
2024-05-09T13:12:44.667Z,23.0548
2024-05-09T13:13:49.286Z,23.0354
2024-05-09T13:14:55.024Z,23.0328
2024-05-09T13:16:00.430Z,23.0475
2024-05-09T13:17:04.519Z,23.0780
2024-05-09T13:18:10.491Z,23.1309
2024-05-09T13:19:15.500Z,23.2338
2024-05-09T13:20:29.118Z,23.4520
2024-05-09T13:21:30.648Z,23.7963
2024-05-09T13:22:34.830Z,24.1508
2024-05-09T13:23:39.450Z,24.4167
2024-05-09T13:24:43.867Z,24.5919
2024-05-09T13:25:48.424Z,24.6954
2024-05-09T13:26:52.865Z,24.7467
2024-05-09T13:27:57.794Z,24.7681
2024-05-09T13:29:02.535Z,24.7783
2024-05-09T13:30:11.873Z,24.8219
2024-05-09T13:31:18.423Z,24.9124
2024-05-09T13:32:23.292Z,24.9996
2024-05-09T13:33:28.255Z,25.0773
2024-05-09T13:34:32.846Z,25.1461
2024-05-09T13:35:38.277Z,25.1920
2024-05-09T13:36:42.883Z,25.2188
2024-05-09T13:37:48.667Z,25.2264
2024-05-09T13:38:53.093Z,25.2235
2024-05-09T13:39:58.152Z,25.2105
2024-05-09T13:41:02.786Z,25.1981
2024-05-09T13:42:07.501Z,25.1783
2024-05-09T13:43:12.366Z,25.1458
2024-05-09T13:44:17.237Z,25.1031
2024-05-09T13:45:21.383Z,25.0630
2024-05-09T13:46:25.886Z,25.0394
2024-05-09T13:47:32.163Z,25.0480
2024-05-09T13:48:36.774Z,25.0831
2024-05-09T13:49:42.181Z,25.1270
2024-05-09T13:50:47.458Z,25.1611
2024-05-09T13:51:52.009Z,25.1656
2024-05-09T13:52:56.479Z,25.1309
2024-05-09T13:54:00.737Z,25.0665
2024-05-09T13:55:05.101Z,24.9872
2024-05-09T13:56:10.126Z,24.8996
2024-05-09T13:57:17.400Z,24.8095
2024-05-09T13:58:23.050Z,24.7203
2024-05-09T13:59:31.379Z,24.6333
2024-05-09T14:00:44.358Z,24.5419
2024-05-09T14:01:47.203Z,24.4422
2024-05-09T14:02:51.948Z,24.3499
2024-05-09T14:03:58.045Z,24.2782
2024-05-09T14:05:02.621Z,24.2244
2024-05-09T14:06:09.432Z,24.1992
2024-05-09T14:07:17.978Z,24.2065
2024-05-09T14:08:23.702Z,24.2285
2024-05-09T14:09:28.475Z,24.2568
2024-05-09T14:10:33.797Z,24.2963
2024-05-09T14:11:38.689Z,24.3467
2024-05-09T14:12:42.974Z,24.3951
2024-05-09T14:13:48.102Z,24.4314
2024-05-09T14:14:52.339Z,24.4511
2024-05-09T14:15:56.804Z,24.4534
2024-05-09T14:17:01.294Z,24.4355
2024-05-09T14:18:08.107Z,24.4027
2024-05-09T14:19:14.320Z,24.3575
2024-05-09T14:20:28.301Z,24.2960
2024-05-09T14:21:29.741Z,24.2240
2024-05-09T14:22:34.450Z,24.1536
2024-05-09T14:23:39.368Z,24.0973
2024-05-09T14:24:45.664Z,24.0613
2024-05-09T14:25:51.973Z,24.0469
2024-05-09T14:26:57.167Z,24.0603
2024-05-09T14:28:01.485Z,24.0915
2024-05-09T14:29:06.392Z,24.1457
2024-05-09T14:30:18.138Z,24.2467
2024-05-09T14:31:21.067Z,24.4151
2024-05-09T14:32:25.247Z,24.6266
2024-05-09T14:33:31.097Z,24.8987
2024-05-09T14:36:47.627Z,25.2637
2024-05-09T14:36:47.627Z,25.7338
2024-05-09T14:38:06.869Z,26.1903
2024-05-09T14:39:37.228Z,26.4674
2024-05-09T14:41:19.979Z,26.6015
2024-05-09T14:42:25.645Z,26.6187
2024-05-09T14:43:35.121Z,26.5696